Time;durP1;ratioP1;P1;durP2;ratioP2;P2;SDS_P1;SDS_P2;PMS_P1;PMS_P2;Temp;Humidity;BMP_temperature;BMP_pressure;BME280_temperature;BME280_humidity;BME280_pressure;Samples;Min_cycle;Max_cycle;Signal;HPM_P1;HPM_P2
2022/12/24 00:01:23;;;;;;;21.60;3.72;;;10.70;99.90;;;;;;5076125;28;20480;-63
2022/12/24 00:03:49;;;;;;;18.52;3.67;;;10.60;99.90;;;;;;5093225;28;20077;-64
2022/12/24 00:06:18;;;;;;;9.73;3.63;;;10.70;99.90;;;;;;5072416;28;20049;-64
2022/12/24 00:08:44;;;;;;;17.52;3.50;;;10.70;99.90;;;;;;5072989;28;20029;-63
2022/12/24 00:11:10;;;;;;;21.70;5.20;;;10.70;99.90;;;;;;5071850;28;20033;-64
2022/12/24 00:13:35;;;;;;;25.60;5.70;;;10.60;99.90;;;;;;5071001;28;20060;-63
2022/12/24 00:16:01;;;;;;;16.83;5.05;;;10.70;99.90;;;;;;5072650;28;20123;-63
2022/12/24 00:18:26;;;;;;;15.75;3.53;;;10.60;99.90;;;;;;5072125;28;20086;-64
2022/12/24 00:20:52;;;;;;;25.30;4.10;;;10.60;99.90;;;;;;5073130;28;20040;-63
2022/12/24 00:23:18;;;;;;;22.60;3.92;;;10.70;99.90;;;;;;5071987;28;20369;-64
2022/12/24 00:25:44;;;;;;;19.35;4.57;;;10.70;99.90;;;;;;5072687;28;20040;-63
2022/12/24 00:28:11;;;;;;;26.90;3.75;;;10.70;99.90;;;;;;5072436;28;20020;-64
2022/12/24 00:30:37;;;;;;;22.80;4.60;;;10.70;99.90;;;;;;5071928;28;20058;-64
2022/12/24 00:33:04;;;;;;;21.08;4.20;;;10.70;99.90;;;;;;5073528;28;20044;-64
2022/12/24 00:35:29;;;;;;;15.32;3.30;;;10.60;99.90;;;;;;5066209;28;20381;-63
2022/12/24 00:37:55;;;;;;;15.68;3.38;;;10.70;99.90;;;;;;5052496;28;20029;-63
2022/12/24 00:40:20;;;;;;;23.92;4.07;;;10.60;99.90;;;;;;5053550;28;20040;-63
2022/12/24 00:42:46;;;;;;;19.20;4.05;;;10.60;99.90;;;;;;5051955;28;20040;-63
2022/12/24 00:45:12;;;;;;;21.33;4.00;;;10.60;99.90;;;;;;5056332;28;20051;-63
2022/12/24 00:47:37;;;;;;;18.23;3.75;;;10.60;99.90;;;;;;5073273;28;20025;-64
2022/12/24 00:50:04;;;;;;;23.48;4.30;;;10.60;99.90;;;;;;5073531;28;20038;-63
2022/12/24 00:52:30;;;;;;;24.05;3.83;;;10.60;99.90;;;;;;5072452;28;20499;-61
2022/12/24 00:54:55;;;;;;;20.63;3.42;;;10.60;99.90;;;;;;5072267;28;20028;-63
2022/12/24 00:57:21;;;;;;;19.15;3.45;;;10.60;99.90;;;;;;5073464;28;20111;-63
2022/12/24 00:59:47;;;;;;;28.55;4.70;;;10.60;99.90;;;;;;5071367;28;20550;-63
2022/12/24 01:02:12;;;;;;;22.27;3.72;;;10.50;99.90;;;;;;5071750;28;20031;-63
2022/12/24 01:07:22;;;;;;;21.67;4.78;;;10.50;99.90;;;;;;5073936;28;20067;-63
2022/12/24 01:09:47;;;;;;;24.80;4.25;;;10.50;99.90;;;;;;5072703;28;20025;-63
2022/12/24 01:12:13;;;;;;;26.10;4.25;;;10.50;99.90;;;;;;5070226;28;20082;-63
2022/12/24 01:14:39;;;;;;;25.40;3.78;;;10.50;99.90;;;;;;5071969;28;20020;-64
2022/12/24 01:17:04;;;;;;;23.50;3.90;;;10.50;99.90;;;;;;5073144;28;20484;-63
2022/12/24 01:19:30;;;;;;;21.25;4.72;;;10.50;99.90;;;;;;5071901;28;20035;-63
2022/12/24 01:21:56;;;;;;;27.08;4.28;;;10.50;99.90;;;;;;5070191;28;20017;-61
2022/12/24 01:24:22;;;;;;;22.92;4.25;;;10.50;99.90;;;;;;5072649;28;20016;-62
2022/12/24 01:26:48;;;;;;;18.45;4.22;;;10.50;99.90;;;;;;5071745;28;20119;-62
2022/12/24 01:29:14;;;;;;;24.95;3.67;;;10.50;99.90;;;;;;5072468;28;20016;-62
2022/12/24 01:31:40;;;;;;;22.98;5.28;;;10.40;99.90;;;;;;5070991;28;20028;-62
2022/12/24 01:34:06;;;;;;;31.00;5.00;;;10.40;99.90;;;;;;5070351;28;20020;-62
2022/12/24 01:36:32;;;;;;;19.42;4.63;;;10.40;99.90;;;;;;5053076;28;20031;-62
2022/12/24 01:38:57;;;;;;;30.20;5.13;;;10.40;99.90;;;;;;5052735;28;20051;-62
2022/12/24 01:44:41;;;;;;;20.08;5.80;;;10.30;99.90;;;;;;5072276;28;20085;-63
2022/12/24 01:47:28;;;;;;;20.83;3.97;;;10.30;99.90;;;;;;5027135;28;20041;-62
2022/12/24 01:50:00;;;;;;;22.52;4.10;;;10.30;99.90;;;;;;5071354;28;20025;-62
2022/12/24 01:52:33;;;;;;;18.05;4.38;;;10.20;99.90;;;;;;5068934;28;20111;-62
2022/12/24 01:55:02;;;;;;;27.92;4.65;;;10.20;99.90;;;;;;5070800;28;20469;-62
2022/12/24 01:57:36;;;;;;;18.65;4.88;;;10.20;99.90;;;;;;5071458;28;20046;-62
2022/12/24 02:00:07;;;;;;;23.33;5.15;;;10.10;99.90;;;;;;5070405;28;20024;-62
2022/12/24 02:02:33;;;;;;;23.50;3.78;;;10.10;99.90;;;;;;5068577;28;20115;-62
2022/12/24 02:05:07;;;;;;;19.85;3.50;;;10.00;99.90;;;;;;5078590;28;20044;-62
2022/12/24 02:07:33;;;;;;;22.60;3.92;;;10.00;99.90;;;;;;5091295;28;20051;-62
2022/12/24 02:10:01;;;;;;;21.42;3.85;;;9.90;99.90;;;;;;5090071;28;20515;-62
2022/12/24 02:12:29;;;;;;;23.83;4.00;;;9.90;99.90;;;;;;5091856;28;20035;-62
2022/12/24 02:14:55;;;;;;;32.00;4.57;;;9.90;99.90;;;;;;5090746;28;20065;-63
2022/12/24 02:17:42;;;;;;;19.85;3.72;;;9.80;99.90;;;;;;5090827;28;20027;-63
2022/12/24 02:20:23;;;;;;;22.83;4.82;;;9.80;99.90;;;;;;5066096;28;20024;-62
2022/12/24 02:23:26;;;;;;;25.95;4.82;;;9.70;99.90;;;;;;5052345;28;20056;-62
2022/12/24 02:26:00;;;;;;;19.42;4.03;;;9.70;99.90;;;;;;5071607;28;20089;-63
2022/12/24 02:28:47;;;;;;;31.63;5.32;;;9.60;99.90;;;;;;5071442;28;20052;-63
2022/12/24 02:31:28;;;;;;;22.88;4.32;;;9.60;99.90;;;;;;5088241;28;20119;-63
2022/12/24 02:34:06;;;;;;;15.53;3.53;;;9.60;99.90;;;;;;5091263;28;20027;-63
2022/12/24 02:36:56;;;;;;;23.13;3.85;;;9.60;99.90;;;;;;5072413;28;20805;-63
2022/12/24 02:39:46;;;;;;;23.60;3.85;;;9.50;99.90;;;;;;5089751;28;20504;-63
2022/12/24 02:42:16;;;;;;;21.48;3.67;;;9.50;99.90;;;;;;5072653;28;20025;-63
2022/12/24 02:44:57;;;;;;;20.80;4.07;;;9.50;99.90;;;;;;5078715;28;20531;-63
2022/12/24 02:47:26;;;;;;;16.25;4.07;;;9.50;99.90;;;;;;5091619;28;20028;-63
2022/12/24 02:49:52;;;;;;;23.30;4.18;;;9.40;99.90;;;;;;5090185;28;20433;-63
2022/12/24 02:52:47;;;;;;;18.27;3.40;;;9.40;99.90;;;;;;5072869;28;20038;-63
2022/12/24 02:55:20;;;;;;;19.98;4.15;;;9.30;99.90;;;;;;5052062;28;20119;-63
2022/12/24 02:58:12;;;;;;;24.13;4.15;;;9.30;99.90;;;;;;5071094;28;20024;-63
2022/12/24 03:01:18;;;;;;;18.08;3.22;;;9.30;99.90;;;;;;5090953;28;20063;-63
2022/12/24 03:04:07;;;;;;;23.23;3.95;;;9.20;99.90;;;;;;5031359;28;20028;-62
2022/12/24 03:06:59;;;;;;;23.52;4.10;;;9.20;99.90;;;;;;5090296;28;20543;-63
2022/12/24 03:09:29;;;;;;;25.00;4.57;;;9.10;99.90;;;;;;5080059;28;20093;-63
2022/12/24 03:12:05;;;;;;;15.77;3.90;;;9.10;99.90;;;;;;5090679;28;20032;-63
2022/12/24 03:14:33;;;;;;;16.67;3.90;;;9.10;99.90;;;;;;5053196;28;20098;-62
2022/12/24 03:17:01;;;;;;;14.90;3.22;;;9.10;99.90;;;;;;5071175;28;20024;-63
2022/12/24 03:19:27;;;;;;;16.98;2.55;;;9.00;99.90;;;;;;5070047;28;20027;-62
2022/12/24 03:21:56;;;;;;;19.85;3.45;;;9.00;99.90;;;;;;5071072;28;20028;-63
2022/12/24 03:24:22;;;;;;;17.30;3.80;;;8.90;99.90;;;;;;5055262;28;20453;-63
2022/12/24 03:26:49;;;;;;;19.83;3.30;;;8.90;99.90;;;;;;5051847;28;20032;-63
2022/12/24 03:29:16;;;;;;;16.10;2.97;;;8.80;99.90;;;;;;5070787;28;20021;-63
2022/12/24 03:31:51;;;;;;;19.83;4.45;;;8.90;99.90;;;;;;5070845;28;20103;-62
2022/12/24 03:34:17;;;;;;;20.10;3.65;;;8.80;99.90;;;;;;5086083;28;20036;-63
2022/12/24 03:36:46;;;;;;;18.90;4.05;;;8.80;99.90;;;;;;5090831;28;20016;-63
2022/12/24 03:39:11;;;;;;;21.30;3.83;;;8.80;99.90;;;;;;5090912;28;20024;-63
2022/12/24 03:41:38;;;;;;;15.88;3.25;;;8.70;99.90;;;;;;5090482;28;20027;-63
2022/12/24 03:44:03;;;;;;;19.27;3.85;;;8.70;99.90;;;;;;5066646;28;20377;-63
2022/12/24 03:46:29;;;;;;;24.05;3.83;;;8.70;99.90;;;;;;5084161;28;20044;-63
2022/12/24 03:48:55;;;;;;;17.85;4.10;;;8.80;99.90;;;;;;5090164;28;20046;-62
2022/12/24 03:51:23;;;;;;;15.35;3.38;;;8.80;99.90;;;;;;5082604;28;20032;-63
2022/12/24 03:53:50;;;;;;;21.25;3.97;;;8.90;99.90;;;;;;5071469;28;20090;-63
2022/12/24 03:56:16;;;;;;;22.23;5.45;;;8.90;99.90;;;;;;5090640;28;20028;-63
2022/12/24 03:58:41;;;;;;;19.67;3.40;;;9.10;99.90;;;;;;5090554;28;20103;-63
2022/12/24 04:01:07;;;;;;;14.68;3.25;;;9.10;99.90;;;;;;5071472;28;20032;-63
2022/12/24 04:03:32;;;;;;;21.52;4.05;;;9.20;99.90;;;;;;5071842;28;20059;-63
2022/12/24 04:06:08;;;;;;;22.88;3.83;;;9.30;99.90;;;;;;5090405;28;20051;-63
2022/12/24 04:08:35;;;;;;;25.08;3.88;;;9.30;99.90;;;;;;5090170;28;20028;-63
2022/12/24 04:11:02;;;;;;;16.58;3.75;;;9.40;99.90;;;;;;5090787;28;20020;-63
2022/12/24 04:13:28;;;;;;;21.13;4.68;;;9.40;99.90;;;;;;5092447;28;20024;-63
2022/12/24 04:16:06;;;;;;;21.98;4.88;;;9.50;99.90;;;;;;5093786;28;20081;-63
2022/12/24 04:18:33;;;;;;;22.35;5.55;;;9.60;99.90;;;;;;5094070;28;20016;-63
2022/12/24 04:20:58;;;;;;;19.13;5.55;;;9.60;99.90;;;;;;5076236;28;20052;-63
2022/12/24 04:23:24;;;;;;;21.83;5.20;;;9.60;99.90;;;;;;5093606;28;20063;-63
2022/12/24 04:25:50;;;;;;;22.65;4.20;;;9.60;99.90;;;;;;5093906;28;20028;-61
2022/12/24 04:28:16;;;;;;;17.80;4.72;;;9.70;99.90;;;;;;5094177;28;20081;-61
2022/12/24 04:30:42;;;;;;;20.40;4.70;;;9.70;99.90;;;;;;5093138;28;20071;-63
2022/12/24 04:33:08;;;;;;;21.60;5.65;;;9.70;99.90;;;;;;5094055;28;20024;-64
2022/12/24 04:35:39;;;;;;;20.27;5.70;;;9.80;99.90;;;;;;5093944;28;20024;-63
2022/12/24 04:38:04;;;;;;;25.15;5.35;;;9.80;99.90;;;;;;5093620;28;20027;-64
2022/12/24 04:40:30;;;;;;;25.38;7.18;;;9.80;99.90;;;;;;5093936;28;20019;-63
2022/12/24 04:42:55;;;;;;;21.70;5.70;;;9.80;99.90;;;;;;5093541;28;20021;-63
2022/12/24 04:45:21;;;;;;;19.92;6.00;;;9.90;99.90;;;;;;5075486;28;20121;-63
2022/12/24 04:47:47;;;;;;;19.02;5.28;;;9.90;99.90;;;;;;5094223;28;20059;-64
2022/12/24 04:50:12;;;;;;;18.02;5.68;;;9.90;99.90;;;;;;5093178;28;20437;-64
2022/12/24 04:52:38;;;;;;;20.45;5.70;;;9.90;99.90;;;;;;5093502;28;20027;-63
2022/12/24 04:55:04;;;;;;;21.17;6.03;;;9.90;99.90;;;;;;5075300;28;20023;-63
2022/12/24 04:57:34;;;;;;;22.02;5.93;;;9.90;99.90;;;;;;5092890;28;20024;-63
2022/12/24 05:00:00;;;;;;;23.05;5.70;;;10.00;99.90;;;;;;5093765;28;20024;-63
2022/12/24 05:02:26;;;;;;;15.45;4.18;;;10.00;99.90;;;;;;5093584;28;20070;-63
2022/12/24 05:04:52;;;;;;;20.20;5.90;;;10.00;99.90;;;;;;5092273;28;20047;-63
2022/12/24 05:07:17;;;;;;;23.02;5.32;;;10.00;99.90;;;;;;5093444;28;20434;-63
2022/12/24 05:09:43;;;;;;;22.05;6.13;;;10.10;99.90;;;;;;5074983;28;20024;-63
2022/12/24 05:12:08;;;;;;;21.15;4.85;;;10.00;99.90;;;;;;5092392;28;20051;-63
2022/12/24 05:14:36;;;;;;;23.40;5.38;;;10.10;99.90;;;;;;5093008;28;20115;-63
2022/12/24 05:17:01;;;;;;;24.17;5.20;;;10.10;99.90;;;;;;5075116;28;20024;-63
2022/12/24 05:19:27;;;;;;;22.60;6.03;;;10.20;99.90;;;;;;5074489;28;20023;-63
2022/12/24 05:27:21;;;;;;;17.17;4.72;;;10.30;99.90;;;;;;5092970;28;20492;-63
2022/12/24 05:29:46;;;;;;;16.73;5.50;;;10.30;99.90;;;;;;5092937;28;20020;-62
2022/12/24 05:32:12;;;;;;;20.42;5.18;;;10.40;99.90;;;;;;5092272;28;20119;-63
2022/12/24 05:34:37;;;;;;;21.92;4.35;;;10.40;99.90;;;;;;5092572;28;20522;-63
2022/12/24 05:37:03;;;;;;;22.67;5.47;;;10.50;99.90;;;;;;5093038;28;20059;-63
2022/12/24 05:39:28;;;;;;;23.85;4.65;;;10.50;99.90;;;;;;5092405;28;20077;-63
2022/12/24 05:41:54;;;;;;;22.15;5.40;;;10.50;99.90;;;;;;5092109;28;20031;-63
2022/12/24 05:44:20;;;;;;;21.95;4.28;;;10.50;99.90;;;;;;5081029;28;20018;-64
2022/12/24 05:46:45;;;;;;;17.05;4.20;;;10.50;99.90;;;;;;5091630;28;20123;-63
2022/12/24 05:49:12;;;;;;;26.75;5.47;;;10.50;99.90;;;;;;5092533;28;20020;-63
2022/12/24 05:51:39;;;;;;;21.27;5.15;;;10.60;99.90;;;;;;5092433;28;20055;-63
2022/12/24 05:54:05;;;;;;;21.35;5.15;;;10.60;99.90;;;;;;5091727;28;20039;-62
2022/12/24 05:56:30;;;;;;;26.17;4.93;;;10.60;99.90;;;;;;5092214;28;20023;-62
2022/12/24 05:58:56;;;;;;;22.67;5.90;;;10.60;99.90;;;;;;5092112;28;20106;-63
2022/12/24 06:01:23;;;;;;;17.48;4.35;;;10.60;99.90;;;;;;5076002;28;20020;-63
2022/12/24 06:03:49;;;;;;;25.33;5.97;;;10.60;99.90;;;;;;5071267;28;20469;-63
2022/12/24 06:06:19;;;;;;;24.77;5.05;;;10.60;99.90;;;;;;5071032;28;20045;-63
2022/12/24 06:08:46;;;;;;;22.80;4.28;;;10.50;99.90;;;;;;5070969;28;20409;-63
2022/12/24 06:11:13;;;;;;;26.20;4.82;;;10.50;99.90;;;;;;5054134;28;20032;-63
2022/12/24 06:13:40;;;;;;;18.33;4.57;;;10.50;99.90;;;;;;5071997;28;20028;-63
2022/12/24 06:16:08;;;;;;;25.63;4.32;;;10.40;99.90;;;;;;5071317;28;20388;-64
2022/12/24 06:18:35;;;;;;;16.33;4.07;;;10.40;99.90;;;;;;5071913;28;20020;-64
2022/12/24 06:21:02;;;;;;;18.80;4.80;;;10.40;99.90;;;;;;5071914;28;20029;-61
2022/12/24 06:23:30;;;;;;;18.20;4.47;;;10.40;99.90;;;;;;5070864;28;20017;-63
2022/12/24 06:25:57;;;;;;;25.25;4.97;;;10.40;99.90;;;;;;5071925;28;20036;-64
2022/12/24 06:28:23;;;;;;;24.02;5.38;;;10.40;99.90;;;;;;5070803;28;20086;-64
2022/12/24 06:30:49;;;;;;;23.27;4.65;;;10.40;99.90;;;;;;5071663;28;20032;-63
2022/12/24 06:33:16;;;;;;;20.55;4.70;;;10.30;99.90;;;;;;5076246;28;20028;-63
2022/12/24 06:35:44;;;;;;;24.40;5.30;;;10.40;99.90;;;;;;5091028;28;20028;-63
2022/12/24 06:38:09;;;;;;;21.05;4.25;;;10.40;99.90;;;;;;5092023;28;20024;-64
2022/12/24 06:40:38;;;;;;;24.90;4.82;;;10.30;99.90;;;;;;5089389;28;20035;-63
2022/12/24 06:43:03;;;;;;;15.57;4.57;;;10.40;99.90;;;;;;5090382;28;20025;-63
2022/12/24 06:45:29;;;;;;;18.33;4.43;;;10.40;99.90;;;;;;5073620;28;20089;-64
2022/12/24 06:47:55;;;;;;;21.40;6.10;;;10.40;99.90;;;;;;5091581;28;20039;-63
2022/12/24 06:50:20;;;;;;;20.77;4.53;;;10.40;99.90;;;;;;5088948;28;20142;-63
2022/12/24 06:52:46;;;;;;;20.58;5.57;;;10.40;99.90;;;;;;5071347;28;20027;-63
2022/12/24 06:55:11;;;;;;;21.15;4.55;;;10.40;99.90;;;;;;5071598;28;20032;-63
2022/12/24 06:57:37;;;;;;;20.48;4.07;;;10.50;99.90;;;;;;5053396;28;20021;-64
2022/12/24 07:00:03;;;;;;;20.70;4.25;;;10.50;99.90;;;;;;5082760;28;20025;-62
2022/12/24 07:02:29;;;;;;;21.98;4.70;;;10.50;99.90;;;;;;5071119;28;20158;-63
2022/12/24 07:04:54;;;;;;;23.30;5.15;;;10.50;99.90;;;;;;5083002;28;20134;-64
2022/12/24 07:07:20;;;;;;;19.42;4.00;;;10.60;99.90;;;;;;5091468;28;20031;-62
2022/12/24 07:09:46;;;;;;;31.58;5.07;;;10.50;99.90;;;;;;5086383;28;20483;-64
2022/12/24 07:12:12;;;;;;;21.75;5.10;;;10.50;99.90;;;;;;5070569;28;20461;-64
2022/12/24 07:14:37;;;;;;;19.02;5.50;;;10.50;99.90;;;;;;5052940;28;20103;-62
2022/12/24 07:17:03;;;;;;;20.00;4.85;;;10.60;99.90;;;;;;5071202;28;20155;-62
2022/12/24 07:19:28;;;;;;;29.88;6.00;;;10.50;99.90;;;;;;5070423;28;20021;-61
2022/12/24 07:21:54;;;;;;;24.15;4.35;;;10.60;99.90;;;;;;5052921;28;20020;-62
2022/12/24 07:24:20;;;;;;;18.35;5.20;;;10.60;99.90;;;;;;5053007;28;20151;-62
2022/12/24 07:26:46;;;;;;;20.67;4.78;;;10.50;99.90;;;;;;5070377;28;20064;-62
2022/12/24 07:29:11;;;;;;;19.73;5.00;;;10.60;99.90;;;;;;5071685;28;20410;-62
2022/12/24 07:31:37;;;;;;;28.15;4.78;;;10.60;99.90;;;;;;5070081;28;20111;-61
2022/12/24 07:34:03;;;;;;;25.25;5.22;;;10.60;99.90;;;;;;5071256;28;20559;-61
2022/12/24 07:36:29;;;;;;;23.35;5.00;;;10.60;99.90;;;;;;5052890;28;20032;-62
2022/12/24 07:38:55;;;;;;;18.60;4.90;;;10.60;99.90;;;;;;5070721;28;20024;-62
2022/12/24 07:41:21;;;;;;;32.25;6.40;;;10.60;99.90;;;;;;5089911;28;20433;-61
2022/12/24 07:43:47;;;;;;;22.30;5.35;;;10.60;99.90;;;;;;5090860;28;20452;-62
2022/12/24 07:46:13;;;;;;;20.92;5.50;;;10.60;99.90;;;;;;5090915;28;20032;-62
2022/12/24 07:48:38;;;;;;;21.67;5.13;;;10.60;99.90;;;;;;5086391;28;20028;-62
2022/12/24 07:51:04;;;;;;;22.67;4.65;;;10.70;99.90;;;;;;5088613;28;20472;-63
2022/12/24 07:53:31;;;;;;;20.83;5.13;;;10.60;99.90;;;;;;5093691;28;20084;-63
2022/12/24 07:55:56;;;;;;;22.85;4.75;;;10.70;99.90;;;;;;5076029;28;20111;-62
2022/12/24 07:58:22;;;;;;;29.23;6.68;;;10.60;99.90;;;;;;5075004;28;20103;-62
2022/12/24 08:00:48;;;;;;;17.95;4.53;;;10.70;99.90;;;;;;5074088;28;20494;-62
2022/12/24 08:03:18;;;;;;;26.20;6.18;;;10.70;99.90;;;;;;5059301;28;20017;-62
2022/12/24 08:05:44;;;;;;;19.58;5.43;;;10.60;99.90;;;;;;5090572;28;20131;-63
2022/12/24 08:08:10;;;;;;;21.55;5.15;;;10.70;99.90;;;;;;5076361;28;20020;-62
2022/12/24 08:10:40;;;;;;;21.67;5.75;;;10.70;99.90;;;;;;5094777;28;20024;-62
2022/12/24 08:13:06;;;;;;;16.55;4.18;;;10.70;99.90;;;;;;5094200;28;20066;-62
2022/12/24 08:15:31;;;;;;;23.38;5.50;;;10.70;99.90;;;;;;5093760;28;20051;-63
2022/12/24 08:17:57;;;;;;;24.30;5.88;;;10.70;99.90;;;;;;5094734;28;20021;-63
2022/12/24 08:20:23;;;;;;;23.02;6.32;;;10.70;99.90;;;;;;5076836;28;20038;-63
2022/12/24 08:22:48;;;;;;;22.50;5.47;;;10.70;99.90;;;;;;5094217;28;20476;-63
2022/12/24 08:25:14;;;;;;;20.80;4.93;;;10.70;99.90;;;;;;5093903;28;20032;-63
2022/12/24 08:27:40;;;;;;;21.60;5.30;;;10.80;99.90;;;;;;5094631;28;20112;-62
2022/12/24 08:30:07;;;;;;;20.35;4.63;;;10.70;99.90;;;;;;5075976;28;20444;-63
2022/12/24 08:32:32;;;;;;;19.17;4.53;;;10.80;99.90;;;;;;5094217;28;20431;-63
2022/12/24 08:34:58;;;;;;;25.85;4.85;;;10.80;99.90;;;;;;5076335;28;20025;-63
2022/12/24 08:37:24;;;;;;;18.48;4.47;;;10.80;99.90;;;;;;5074430;28;20473;-64
2022/12/24 08:39:49;;;;;;;20.63;5.05;;;10.80;99.90;;;;;;5091595;28;20035;-63
2022/12/24 08:42:15;;;;;;;19.48;5.65;;;10.80;99.90;;;;;;5093770;28;20077;-64
2022/12/24 08:44:40;;;;;;;23.85;6.18;;;10.80;99.90;;;;;;5081804;28;20464;-64
2022/12/24 08:47:06;;;;;;;25.40;5.63;;;10.80;99.90;;;;;;5087013;28;20032;-64
2022/12/24 08:49:32;;;;;;;23.65;6.47;;;10.80;99.90;;;;;;5075196;28;20017;-64
2022/12/24 08:51:57;;;;;;;25.48;6.57;;;10.80;99.90;;;;;;5094281;28;20317;-63
2022/12/24 08:54:24;;;;;;;24.50;6.70;;;10.80;99.90;;;;;;5070209;28;20161;-64
2022/12/24 08:56:50;;;;;;;22.90;6.10;;;10.80;99.90;;;;;;5082015;28;20051;-63
2022/12/24 08:59:15;;;;;;;30.13;6.43;;;10.80;99.90;;;;;;5073599;28;20477;-64
2022/12/24 09:01:41;;;;;;;22.42;6.10;;;10.90;99.90;;;;;;5080167;28;20085;-63
2022/12/24 09:04:08;;;;;;;26.48;5.60;;;10.80;99.90;;;;;;5085249;28;20515;-62
2022/12/24 09:06:34;;;;;;;22.08;5.75;;;10.90;99.90;;;;;;5079993;28;20040;-61
2022/12/24 09:09:01;;;;;;;27.10;5.70;;;10.90;99.90;;;;;;5089968;28;20020;-62
2022/12/24 09:11:27;;;;;;;28.55;6.10;;;11.00;99.90;;;;;;5063861;28;20445;-61
2022/12/24 09:13:53;;;;;;;21.45;5.50;;;11.00;99.90;;;;;;5080097;28;20103;-62
2022/12/24 09:16:19;;;;;;;33.72;6.47;;;11.00;99.90;;;;;;5087029;28;20028;-62
2022/12/24 09:18:45;;;;;;;28.95;5.93;;;11.00;99.90;;;;;;5092963;28;20024;-61
2022/12/24 09:21:16;;;;;;;19.85;5.82;;;11.00;99.90;;;;;;5073761;28;20032;-63
2022/12/24 09:23:44;;;;;;;26.38;5.65;;;11.00;99.90;;;;;;5072912;28;20021;-62
2022/12/24 09:26:16;;;;;;;28.95;5.72;;;11.00;99.90;;;;;;5092598;28;20063;-61
2022/12/24 09:28:42;;;;;;;18.80;6.10;;;11.00;99.90;;;;;;5093605;28;20025;-62
2022/12/24 09:31:09;;;;;;;29.77;5.95;;;11.00;99.90;;;;;;5084391;28;20061;-62
2022/12/24 09:33:37;;;;;;;29.23;6.38;;;11.00;99.90;;;;;;5080120;28;20095;-62
2022/12/24 09:36:04;;;;;;;27.65;6.88;;;11.00;99.90;;;;;;5085664;28;20031;-62
2022/12/24 09:38:30;;;;;;;21.23;5.82;;;11.10;99.90;;;;;;5091161;28;20016;-62
2022/12/24 09:40:57;;;;;;;27.65;5.90;;;11.00;99.90;;;;;;5090743;28;20393;-62
2022/12/24 09:43:34;;;;;;;17.17;5.72;;;11.10;99.90;;;;;;5082089;28;20027;-61
2022/12/24 09:46:06;;;;;;;26.90;6.25;;;11.10;99.90;;;;;;5073121;28;20385;-63
2022/12/24 09:48:43;;;;;;;23.70;6.60;;;11.10;99.90;;;;;;5072540;28;20028;-62
2022/12/24 09:51:13;;;;;;;29.88;6.25;;;11.10;99.90;;;;;;5071686;28;20020;-62
2022/12/24 09:53:47;;;;;;;18.83;5.47;;;11.10;99.90;;;;;;5070494;28;20157;-62
2022/12/24 09:56:26;;;;;;;23.85;5.50;;;11.20;99.90;;;;;;5071639;28;20166;-62
2022/12/24 09:59:00;;;;;;;20.42;5.53;;;11.20;99.90;;;;;;5074777;28;20080;-62
2022/12/24 10:01:30;;;;;;;22.98;7.40;;;11.20;99.90;;;;;;5091271;28;20031;-62
2022/12/24 10:03:59;;;;;;;22.25;5.93;;;11.20;99.90;;;;;;5090881;28;20210;-61
2022/12/24 10:06:36;;;;;;;21.60;5.13;;;11.20;99.90;;;;;;5083467;28;20217;-62
2022/12/24 10:09:14;;;;;;;20.10;4.28;;;11.20;99.90;;;;;;5091051;28;20861;-62
2022/12/24 10:11:49;;;;;;;25.02;5.30;;;11.20;99.90;;;;;;5072879;28;20507;-62
2022/12/24 10:14:33;;;;;;;18.92;5.07;;;11.10;99.90;;;;;;5082151;28;20060;-62
2022/12/24 10:17:18;;;;;;;19.92;4.97;;;11.20;99.90;;;;;;5064438;28;20435;-62
2022/12/24 10:20:02;;;;;;;16.90;5.13;;;11.20;99.90;;;;;;5088869;28;20032;-62
2022/12/24 10:22:49;;;;;;;26.20;6.00;;;11.20;99.90;;;;;;5085956;28;20081;-62
2022/12/24 10:25:31;;;;;;;16.95;4.05;;;11.20;99.90;;;;;;5085038;28;20538;-62
2022/12/24 10:28:01;;;;;;;18.23;4.43;;;11.20;99.90;;;;;;5072036;28;20036;-62
2022/12/24 10:30:28;;;;;;;18.00;4.90;;;11.20;99.90;;;;;;5079180;28;20039;-62
2022/12/24 10:32:54;;;;;;;20.25;4.22;;;11.20;99.90;;;;;;5082031;28;20126;-62
2022/12/24 10:35:25;;;;;;;16.55;4.88;;;11.30;99.90;;;;;;5085663;28;20191;-62
2022/12/24 10:37:51;;;;;;;19.58;5.32;;;11.30;99.90;;;;;;5070706;28;20099;-62
2022/12/24 10:40:33;;;;;;;22.02;4.65;;;11.30;99.90;;;;;;5065114;28;20557;-62
2022/12/24 10:42:59;;;;;;;23.60;5.35;;;11.40;99.90;;;;;;5072427;28;20035;-62
2022/12/24 10:45:32;;;;;;;21.00;4.97;;;11.40;99.90;;;;;;5091427;28;20032;-62
2022/12/24 10:48:06;;;;;;;23.25;4.72;;;11.50;99.90;;;;;;5091233;28;20162;-62
2022/12/24 10:50:41;;;;;;;17.48;4.97;;;11.40;99.90;;;;;;5089764;28;20015;-62
2022/12/24 10:53:16;;;;;;;15.10;4.88;;;11.40;99.90;;;;;;5055045;28;20028;-62
2022/12/24 10:55:42;;;;;;;14.02;3.75;;;11.40;99.90;;;;;;5072603;28;20027;-62
2022/12/24 10:58:19;;;;;;;14.25;3.72;;;11.40;99.90;;;;;;5067793;28;20035;-63
2022/12/24 11:00:52;;;;;;;23.40;4.88;;;11.30;99.90;;;;;;5089800;28;20016;-61
2022/12/24 11:03:17;;;;;;;16.17;5.10;;;11.30;99.90;;;;;;5071346;28;20017;-62
2022/12/24 11:05:43;;;;;;;20.52;4.63;;;11.30;99.90;;;;;;5070453;28;20059;-62
2022/12/24 11:08:11;;;;;;;19.90;4.05;;;11.30;99.90;;;;;;5070535;28;20389;-63
2022/12/24 11:10:41;;;;;;;19.00;5.05;;;11.30;99.90;;;;;;5070068;28;20032;-62
2022/12/24 11:13:26;;;;;;;18.35;4.72;;;11.30;99.90;;;;;;5069231;28;20016;-62
2022/12/24 11:16:01;;;;;;;18.02;4.35;;;11.30;99.90;;;;;;5070291;28;20024;-62
2022/12/24 11:18:27;;;;;;;12.70;4.20;;;11.40;99.90;;;;;;5070005;28;20020;-63
2022/12/24 11:20:53;;;;;;;21.95;4.00;;;11.50;99.90;;;;;;5087176;28;20031;-63
2022/12/24 11:23:19;;;;;;;16.25;4.18;;;11.60;99.90;;;;;;5094832;28;20036;-63
2022/12/24 11:25:50;;;;;;;24.17;4.13;;;11.50;99.90;;;;;;5093908;28;20028;-62
2022/12/24 11:28:21;;;;;;;20.67;4.05;;;11.40;99.90;;;;;;5094767;28;20016;-62
2022/12/24 11:30:58;;;;;;;19.15;3.95;;;11.30;99.90;;;;;;5093829;28;20485;-62
2022/12/24 11:33:24;;;;;;;13.95;4.22;;;11.20;99.90;;;;;;5090929;28;20062;-63
2022/12/24 11:36:00;;;;;;;14.10;4.00;;;11.10;99.90;;;;;;5056918;28;20047;-63
2022/12/24 11:38:27;;;;;;;16.17;4.47;;;11.10;99.90;;;;;;5083273;28;20028;-62
2022/12/24 11:41:05;;;;;;;16.60;4.22;;;11.10;99.90;;;;;;5090359;28;20028;-62
2022/12/24 11:43:43;;;;;;;22.85;4.78;;;11.00;99.90;;;;;;5092892;28;20028;-62
2022/12/24 11:46:37;;;;;;;15.80;3.65;;;11.00;99.90;;;;;;5092213;28;20416;-62
2022/12/24 11:49:11;;;;;;;17.10;4.47;;;11.10;99.90;;;;;;5080873;28;20022;-62
2022/12/24 11:51:39;;;;;;;17.40;4.68;;;11.00;99.90;;;;;;5092370;28;20102;-63
2022/12/24 11:54:14;;;;;;;15.27;4.45;;;11.00;99.90;;;;;;5087648;28;20024;-61
2022/12/24 11:56:47;;;;;;;18.67;4.88;;;11.10;99.90;;;;;;5066122;28;20089;-62
2022/12/24 11:59:27;;;;;;;15.60;4.25;;;11.20;99.90;;;;;;5093158;28;20416;-62
2022/12/24 12:02:17;;;;;;;17.92;4.38;;;11.30;99.90;;;;;;5091774;28;20457;-62
2022/12/24 12:04:47;;;;;;;17.48;4.13;;;11.40;99.90;;;;;;5069910;28;20083;-62
2022/12/24 12:07:17;;;;;;;18.77;4.70;;;11.40;99.90;;;;;;5074258;28;20024;-62
2022/12/24 12:09:56;;;;;;;15.07;4.05;;;11.50;99.90;;;;;;5071970;28;20034;-62
2022/12/24 12:12:27;;;;;;;14.88;3.58;;;11.40;99.90;;;;;;5088480;28;20047;-62
2022/12/24 12:14:55;;;;;;;;;;;11.40;99.90;;;;;;5085557;28;20064;-62
2022/12/24 12:17:53;;;;;;;10.43;3.35;;;11.40;99.90;;;;;;5091899;28;20012;-62
2022/12/24 12:20:54;;;;;;;20.48;3.40;;;11.30;99.90;;;;;;5076532;28;20040;-62
2022/12/24 12:23:25;;;;;;;13.95;3.08;;;11.40;99.90;;;;;;5084559;28;20067;-61
2022/12/24 12:25:52;;;;;;;18.83;3.97;;;11.40;99.90;;;;;;5092789;28;20036;-62
2022/12/24 12:28:22;;;;;;;17.10;3.20;;;11.40;99.90;;;;;;5093256;28;20020;-62
2022/12/24 12:31:25;;;;;;;15.98;4.00;;;11.40;99.90;;;;;;5091693;28;20403;-62
2022/12/24 12:33:59;;;;;;;21.13;3.80;;;11.40;99.90;;;;;;5087937;28;20024;-62
2022/12/24 12:36:47;;;;;;;11.35;3.22;;;11.40;99.90;;;;;;5073318;28;20054;-62
2022/12/24 12:39:12;;;;;;;19.77;3.65;;;11.40;99.90;;;;;;5079467;28;20055;-62
2022/12/24 12:42:01;;;;;;;13.70;3.78;;;11.30;99.90;;;;;;5080637;28;20052;-63
2022/12/24 12:44:45;;;;;;;21.60;3.92;;;11.30;99.90;;;;;;5089159;28;20044;-63
2022/12/24 12:47:17;;;;;;;14.80;3.92;;;11.20;99.90;;;;;;5073420;28;20135;-62
2022/12/24 12:50:20;;;;;;;12.48;3.72;;;11.20;99.90;;;;;;5055611;28;20512;-62
2022/12/24 15:31:11;;;;;;;9.73;3.13;;;9.30;99.90;;;;;;5107078;27;20329;-62
2022/12/24 15:33:38;;;;;;;12.50;2.83;;;9.20;99.90;;;;;;5067828;28;20048;-63
2022/12/24 15:36:05;;;;;;;12.40;2.40;;;9.20;99.90;;;;;;5067113;28;20094;-62
2022/12/24 15:38:35;;;;;;;11.10;2.70;;;9.20;99.90;;;;;;5066424;28;20024;-64
2022/12/24 15:41:13;;;;;;;11.10;2.53;;;9.20;99.90;;;;;;5069230;28;20021;-63
2022/12/24 15:43:40;;;;;;;11.38;2.47;;;9.20;99.90;;;;;;5087045;28;20032;-62